LZPPLZKZ

Guest
Details From LZPP - PIESTANY
To LZKZ - KOSICE
Flight Number -
Tags generated
Created
Modified
Stats Distance 136 nm / 251 km
Max Altitude 15,500 ft / 4,724 m
Waypoints 3
Social Downloads 0
Likes 0
Share VATSIM

Download

Looking for another format? Having issues loading an existing format? Contact us
Advertisement - Login to hide

Notes

Basic altitude profile: - Ascent Rate: 2500ft/min - Ascent Speed: 250kts - Cruise Altitude: 10000ft - Cruise Speed: 420kts - Descent Rate: 1500ft/min - Descent Speed: 250kts Options: - Use NATs: yes - Use PACOTS: yes - Use low airways: yes - Use high airways: no

Route

LZPP UBARU LZKZ

ID Type Via Altitude Latitude Longitude Leg Dist Tot Dist Heading (true) Name
O LZPP APT - 0 ft / 0 m 48.62525˚ 17.82844˚ - 0 nm - PIESTANY
UBARU FIX - 15,500 ft / 4,724 m 48.60250˚ 19.41167˚ 62 nm 62 nm 91° / 92° -
O LZKZ APT - 0 ft / 0 m 48.66303˚ 21.24115˚ 72 nm 135 nm 86° / 88° KOSICE

Altitude Profile

Advertisement - Login to hide

LZPP

Details ICAO LZPP (PZY)
Name PIESTANY
Region Slovakia
Timezone Europe/Bratislava (UTC+1.0)
Stats Elevation 545 ft / 166 m (AMSL)
Location 48.625246° 17.828443°
Runways 1
Magnetic Variation 4.586° E

METAR

LZPP 180300Z AUTO VRB02KT 9000 OVC072/// M03/M04 Q1022

Decode

TAF

Not found

Departure Runways

ID Width Length Bearing (true) Bearing (mag) Surface Threshold Offset Overrun Length
01 98 ft / 30 m 6,560 ft / 1,999 m 13.71° 9.12° Asphalt 0 ft / 0 m 0 ft / 0 m
19 98 ft / 30 m 6,560 ft / 1,999 m 193.72° 189.13° Asphalt 0 ft / 0 m 0 ft / 0 m

LZKZ

Details ICAO LZKZ (KSC)
Name KOSICE
Region Slovakia
Timezone Europe/Bratislava (UTC+1.0)
Stats Elevation 755 ft / 230 m (AMSL)
Location 48.663030° 21.241155°
Runways 1
Magnetic Variation 5.332° E

METAR

LZKZ 180300Z 02011KT CAVOK M01/M04 Q1020

Decode

TAF

Not found

Destination Runways

ID Width Length Bearing (true) Bearing (mag) Surface Threshold Offset Overrun Length
01 148 ft / 45 m 10,174 ft / 3,101 m 13.00° 7.67° Asphalt 0 ft / 0 m 0 ft / 0 m
19 148 ft / 45 m 10,174 ft / 3,101 m 193.00° 187.67° Asphalt 0 ft / 0 m 0 ft / 0 m

Approach Navaids

Runway Type Ident Frequency Range Bearing (true) Bearing (mag) Slope Elevation
01 Localiser KE 109.50 MHz 18 nm / 33 km 13.00° 7.67° - 739 ft / 225 m (AMSL)
01 Glidescope KE 109.50 MHz 10 nm / 19 km 13.00° 7.67° 3.00° 739 ft / 225 m (AMSL)

Popular Alternatives